createdAt,value
2022-12-31T00:01:31.038Z,36.30
2022-12-31T00:03:59.142Z,51.50
2022-12-31T00:06:32.017Z,65.10
2022-12-31T00:09:02.459Z,67.00
2022-12-31T00:11:31.585Z,59.30
2022-12-31T00:13:59.791Z,51.10
2022-12-31T00:16:31.332Z,50.50
2022-12-31T00:19:00.701Z,52.50
2022-12-31T00:21:30.682Z,45.60
2022-12-31T00:23:59.329Z,47.70
2022-12-31T00:26:30.321Z,55.10
2022-12-31T00:29:00.691Z,53.60
2022-12-31T00:31:34.955Z,53.60
2022-12-31T00:34:04.236Z,47.70
2022-12-31T00:36:35.648Z,46.60
2022-12-31T00:39:06.213Z,40.90
2022-12-31T00:41:35.097Z,36.60
2022-12-31T00:44:03.805Z,35.70
2022-12-31T00:46:32.704Z,41.40
2022-12-31T00:49:00.933Z,42.30
2022-12-31T00:51:29.467Z,38.10
2022-12-31T00:53:58.609Z,40.00
2022-12-31T00:56:29.877Z,42.30
2022-12-31T00:58:59.877Z,41.90
2022-12-31T01:01:31.158Z,40.70
2022-12-31T01:04:06.387Z,43.20
2022-12-31T01:06:35.186Z,46.60
2022-12-31T01:09:03.893Z,40.60
2022-12-31T01:11:32.645Z,42.00
2022-12-31T01:14:18.310Z,37.50
2022-12-31T01:16:50.078Z,35.90
2022-12-31T01:19:22.413Z,40.90
2022-12-31T01:21:51.851Z,32.60
2022-12-31T01:24:21.090Z,36.50
2022-12-31T01:26:51.647Z,28.80
2022-12-31T01:29:20.313Z,29.10
2022-12-31T01:31:48.782Z,34.20
2022-12-31T01:34:17.149Z,28.80
2022-12-31T01:36:45.467Z,26.40
2022-12-31T01:39:13.823Z,24.30
2022-12-31T01:41:45.473Z,27.60
2022-12-31T01:44:13.679Z,26.10
2022-12-31T01:46:52.202Z,27.10
2022-12-31T01:49:23.922Z,33.20
2022-12-31T01:52:04.011Z,32.00
2022-12-31T01:54:37.085Z,36.10
2022-12-31T01:57:05.349Z,28.60
2022-12-31T01:59:34.418Z,31.20
2022-12-31T02:02:04.089Z,32.20
2022-12-31T02:04:32.568Z,32.70
2022-12-31T02:07:09.002Z,34.20
2022-12-31T02:09:39.683Z,32.10
2022-12-31T02:12:09.455Z,33.70
2022-12-31T02:14:56.144Z,33.80
2022-12-31T02:17:35.729Z,39.60
2022-12-31T02:20:25.588Z,34.70
2022-12-31T02:23:18.390Z,32.10
2022-12-31T02:26:18.540Z,31.60
2022-12-31T02:29:01.595Z,33.00
2022-12-31T02:31:58.799Z,34.30
2022-12-31T02:34:37.131Z,30.20
2022-12-31T02:37:10.838Z,31.60
2022-12-31T02:39:41.181Z,29.70
2022-12-31T02:42:10.958Z,30.70
2022-12-31T02:44:41.956Z,29.50
2022-12-31T02:47:10.693Z,25.60
2022-12-31T02:50:00.193Z,25.70
2022-12-31T02:52:58.538Z,25.30
2022-12-31T02:55:42.059Z,19.70
2022-12-31T02:58:50.290Z,22.00
2022-12-31T03:01:45.247Z,22.10
2022-12-31T03:04:32.710Z,21.20
2022-12-31T03:07:07.211Z,23.90
2022-12-31T03:09:36.742Z,21.10
2022-12-31T03:12:26.627Z,19.60
2022-12-31T03:14:55.255Z,20.80
2022-12-31T03:17:24.600Z,22.80
2022-12-31T03:20:11.107Z,20.30
2022-12-31T03:22:43.311Z,15.00
2022-12-31T03:25:34.066Z,17.10
2022-12-31T03:28:04.611Z,19.70
2022-12-31T03:30:34.074Z,28.40
2022-12-31T03:33:02.932Z,19.60
2022-12-31T03:35:33.341Z,20.90
2022-12-31T03:38:03.125Z,22.20
2022-12-31T03:40:34.391Z,17.80
2022-12-31T03:43:02.736Z,18.50
2022-12-31T03:45:30.989Z,19.00
2022-12-31T03:47:59.141Z,21.00
2022-12-31T03:50:28.093Z,19.90
2022-12-31T03:52:56.662Z,18.70
2022-12-31T03:55:25.215Z,20.60
2022-12-31T03:57:53.422Z,20.50
2022-12-31T04:00:22.451Z,19.20
2022-12-31T04:02:51.189Z,21.60
2022-12-31T04:05:19.878Z,16.00
2022-12-31T04:07:49.171Z,20.40
2022-12-31T04:10:18.328Z,18.20
2022-12-31T04:12:46.440Z,19.60
2022-12-31T04:15:20.521Z,18.50
2022-12-31T04:17:49.223Z,20.60
2022-12-31T04:20:17.432Z,18.00
2022-12-31T04:22:45.587Z,17.20
2022-12-31T04:25:13.857Z,14.20
2022-12-31T04:27:43.963Z,20.90
2022-12-31T04:30:13.916Z,15.40
2022-12-31T04:32:42.727Z,16.50
2022-12-31T04:35:11.598Z,16.10
2022-12-31T04:37:39.967Z,17.70
2022-12-31T04:40:09.461Z,19.30
2022-12-31T04:42:38.107Z,15.90
2022-12-31T04:45:07.115Z,15.40
2022-12-31T04:47:35.360Z,20.30
2022-12-31T04:50:05.716Z,22.30
2022-12-31T04:52:38.755Z,18.20
2022-12-31T04:55:08.523Z,15.60
2022-12-31T04:57:36.911Z,16.80
2022-12-31T05:00:05.498Z,14.90
2022-12-31T05:02:34.111Z,16.80
2022-12-31T05:05:02.599Z,20.50
2022-12-31T05:07:30.726Z,18.30
2022-12-31T05:09:58.777Z,12.00
2022-12-31T05:12:27.256Z,13.20
2022-12-31T05:14:55.448Z,11.80
2022-12-31T05:17:23.402Z,11.80
2022-12-31T05:19:51.501Z,11.90
2022-12-31T05:22:29.251Z,11.70
2022-12-31T05:25:00.916Z,14.60
2022-12-31T05:27:31.332Z,14.00
2022-12-31T05:32:28.402Z,13.30
2022-12-31T05:34:58.293Z,13.60
2022-12-31T05:37:29.746Z,12.40
2022-12-31T05:39:58.529Z,15.40
2022-12-31T05:42:27.148Z,30.90
2022-12-31T05:44:55.804Z,31.60
2022-12-31T05:47:24.648Z,28.60
2022-12-31T05:49:53.321Z,34.20
2022-12-31T05:52:21.417Z,35.10
2022-12-31T05:54:49.631Z,21.50
2022-12-31T05:57:17.646Z,21.30
2022-12-31T05:59:45.897Z,20.30
2022-12-31T06:02:14.431Z,24.30
2022-12-31T06:04:42.649Z,22.60
2022-12-31T06:07:10.661Z,16.90
2022-12-31T06:09:39.053Z,16.00
2022-12-31T06:12:07.893Z,18.00
2022-12-31T06:14:40.761Z,15.70
2022-12-31T06:17:12.073Z,19.30
2022-12-31T06:19:40.261Z,17.00
2022-12-31T06:22:08.491Z,19.10
2022-12-31T06:24:36.723Z,19.20
2022-12-31T06:27:04.802Z,16.20
2022-12-31T06:29:32.986Z,19.20
2022-12-31T06:32:01.426Z,18.80
2022-12-31T06:34:29.692Z,8.50
2022-12-31T06:36:59.409Z,8.00
2022-12-31T06:39:27.770Z,7.80
2022-12-31T06:41:56.185Z,7.20
2022-12-31T06:44:24.349Z,8.30
2022-12-31T06:46:52.974Z,5.50
2022-12-31T06:49:21.002Z,5.90
2022-12-31T06:51:49.205Z,4.70
2022-12-31T06:54:17.655Z,5.40
2022-12-31T06:56:45.948Z,9.20
2022-12-31T06:59:24.401Z,10.30
2022-12-31T07:02:14.174Z,9.70
2022-12-31T07:05:10.179Z,6.30
2022-12-31T07:08:00.120Z,6.90
2022-12-31T07:10:37.305Z,10.30
2022-12-31T07:13:41.211Z,6.30
2022-12-31T07:16:30.513Z,7.60
2022-12-31T07:19:11.060Z,7.70
2022-12-31T07:24:11.127Z,7.60
2022-12-31T07:27:11.872Z,7.00
2022-12-31T07:30:02.431Z,7.80
2022-12-31T07:32:40.899Z,8.10
2022-12-31T07:35:14.830Z,7.90
2022-12-31T07:38:03.004Z,9.60
2022-12-31T07:41:22.231Z,8.50
2022-12-31T07:44:06.630Z,5.50
2022-12-31T07:46:37.924Z,6.20
2022-12-31T07:49:11.648Z,6.70
2022-12-31T07:51:41.339Z,7.40
2022-12-31T07:54:13.851Z,6.00
2022-12-31T07:56:43.367Z,5.40
2022-12-31T07:59:42.903Z,9.80
2022-12-31T08:02:22.857Z,9.60
2022-12-31T08:05:02.601Z,6.40
2022-12-31T08:07:36.610Z,7.30
2022-12-31T08:10:17.326Z,8.00
2022-12-31T08:12:49.519Z,6.90
2022-12-31T08:15:19.202Z,8.20
2022-12-31T08:17:47.648Z,5.80
2022-12-31T08:20:17.499Z,10.10
2022-12-31T08:23:11.742Z,8.00
2022-12-31T08:26:06.314Z,10.60
2022-12-31T08:28:50.956Z,7.50
2022-12-31T08:31:41.126Z,6.40
2022-12-31T08:34:24.372Z,8.70
2022-12-31T08:37:04.695Z,9.20
2022-12-31T08:39:47.932Z,9.50
2022-12-31T08:43:01.670Z,10.00
2022-12-31T08:45:41.734Z,6.00
2022-12-31T08:48:27.473Z,6.60
2022-12-31T08:50:56.174Z,7.50
2022-12-31T08:53:24.810Z,6.10
2022-12-31T08:56:01.018Z,7.20
2022-12-31T08:59:12.497Z,10.70
2022-12-31T09:01:55.938Z,8.60
2022-12-31T09:04:36.209Z,8.30
2022-12-31T09:07:07.184Z,9.20
2022-12-31T09:10:03.127Z,6.40
2022-12-31T09:12:50.951Z,8.60
2022-12-31T09:15:25.809Z,7.50
2022-12-31T09:17:54.352Z,9.80
2022-12-31T09:20:25.168Z,7.50
2022-12-31T09:22:54.696Z,8.90
2022-12-31T09:25:24.830Z,12.30
2022-12-31T09:28:13.975Z,10.80
2022-12-31T09:30:53.470Z,8.60
2022-12-31T09:33:29.122Z,7.50
2022-12-31T09:36:00.354Z,9.90
2022-12-31T09:38:52.488Z,6.90
2022-12-31T09:42:16.359Z,7.30
2022-12-31T09:45:02.752Z,6.90
2022-12-31T09:47:49.292Z,8.20
2022-12-31T09:50:39.126Z,9.10
2022-12-31T09:53:19.071Z,9.70
2022-12-31T09:56:00.033Z,7.20
2022-12-31T09:58:31.351Z,8.50
2022-12-31T10:01:19.160Z,9.10
2022-12-31T10:04:13.525Z,7.80
2022-12-31T10:07:09.286Z,6.00
2022-12-31T10:09:40.444Z,10.60
2022-12-31T10:12:20.745Z,7.00
2022-12-31T10:17:48.127Z,7.50
2022-12-31T10:20:22.351Z,7.90
2022-12-31T10:22:53.527Z,9.00
2022-12-31T10:25:38.486Z,8.90
2022-12-31T10:28:26.244Z,12.90
2022-12-31T10:31:10.482Z,8.60
2022-12-31T10:34:07.588Z,7.00
2022-12-31T10:37:09.042Z,6.90
2022-12-31T10:39:40.560Z,8.00
2022-12-31T10:42:50.646Z,12.20
2022-12-31T10:45:31.035Z,9.30
2022-12-31T10:48:23.785Z,6.30
2022-12-31T10:51:04.171Z,8.90
2022-12-31T10:54:00.735Z,7.60
2022-12-31T10:57:07.493Z,8.20
2022-12-31T11:00:10.847Z,6.90
2022-12-31T11:03:07.310Z,11.10
2022-12-31T11:06:04.796Z,8.90
2022-12-31T11:08:44.604Z,9.50
2022-12-31T11:11:53.324Z,10.00
2022-12-31T11:14:47.062Z,8.90
2022-12-31T11:18:05.479Z,9.70
2022-12-31T11:20:33.648Z,9.00
2022-12-31T11:23:37.127Z,9.10
2022-12-31T11:26:08.793Z,10.90
2022-12-31T11:29:02.213Z,9.20
2022-12-31T11:31:36.566Z,11.80
2022-12-31T11:34:41.233Z,10.30
2022-12-31T11:37:36.857Z,11.70
2022-12-31T11:40:15.555Z,10.30
2022-12-31T11:42:59.631Z,13.20
2022-12-31T11:45:52.860Z,14.30
2022-12-31T11:48:31.642Z,11.80
2022-12-31T11:51:25.009Z,15.40
2022-12-31T11:54:51.944Z,10.80
2022-12-31T11:57:26.182Z,9.50
2022-12-31T11:59:59.894Z,9.70
2022-12-31T12:02:37.734Z,10.30
2022-12-31T12:05:11.083Z,11.40
2022-12-31T12:07:39.764Z,11.50
2022-12-31T12:10:27.873Z,11.50
2022-12-31T12:13:00.211Z,19.00
2022-12-31T12:15:35.622Z,12.20
2022-12-31T12:18:23.449Z,14.60
2022-12-31T12:20:51.417Z,11.50
2022-12-31T12:23:26.387Z,11.80
2022-12-31T12:25:54.606Z,8.60
2022-12-31T12:28:27.246Z,13.60
2022-12-31T12:30:58.339Z,10.80
2022-12-31T12:33:29.764Z,9.30
2022-12-31T12:36:13.159Z,12.90
2022-12-31T12:38:42.016Z,8.30
2022-12-31T12:41:20.088Z,7.50
2022-12-31T12:43:48.253Z,9.00
2022-12-31T12:46:27.772Z,10.50
2022-12-31T12:48:58.078Z,9.60
2022-12-31T12:51:50.921Z,9.90
2022-12-31T12:54:22.088Z,13.50
2022-12-31T12:57:09.341Z,12.40
2022-12-31T12:59:44.669Z,11.30
2022-12-31T13:02:22.992Z,12.00
2022-12-31T13:04:50.905Z,10.40
2022-12-31T13:07:41.170Z,9.50
2022-12-31T13:13:25.035Z,9.80
2022-12-31T13:16:16.956Z,11.20
2022-12-31T13:19:07.171Z,10.70
2022-12-31T13:21:46.350Z,9.20
2022-12-31T13:24:35.834Z,12.70
2022-12-31T13:27:19.416Z,11.30
2022-12-31T13:29:48.985Z,12.60
2022-12-31T13:32:26.532Z,12.70
2022-12-31T13:35:16.813Z,11.70
2022-12-31T13:37:47.310Z,11.80
2022-12-31T13:40:30.699Z,9.30
2022-12-31T13:43:06.515Z,13.40
2022-12-31T13:45:41.564Z,10.40
2022-12-31T13:48:18.775Z,13.20
2022-12-31T13:51:23.062Z,18.80
2022-12-31T13:54:01.862Z,14.10
2022-12-31T13:56:36.969Z,13.50
2022-12-31T13:59:19.850Z,15.40
2022-12-31T14:02:15.871Z,12.40
2022-12-31T14:04:51.457Z,14.90
2022-12-31T14:07:35.433Z,12.00
2022-12-31T14:10:16.772Z,10.20
2022-12-31T14:13:12.254Z,10.70
2022-12-31T14:16:19.420Z,12.70
2022-12-31T14:19:27.494Z,11.30
2022-12-31T14:22:09.246Z,10.80
2022-12-31T14:24:42.907Z,9.90
2022-12-31T14:27:16.543Z,10.50
2022-12-31T14:29:59.578Z,10.00
2022-12-31T14:32:34.248Z,11.10
2022-12-31T14:35:22.451Z,8.70
2022-12-31T14:38:07.292Z,14.00
2022-12-31T14:41:03.234Z,10.50
2022-12-31T14:43:40.185Z,13.80
2022-12-31T14:46:43.179Z,11.10
2022-12-31T14:49:34.608Z,11.50
2022-12-31T14:52:21.982Z,9.70
2022-12-31T14:55:01.932Z,12.70
2022-12-31T14:58:25.358Z,13.80
2022-12-31T15:00:34.802Z,14.60
2022-12-31T15:03:14.367Z,14.30
2022-12-31T15:06:01.195Z,11.90
2022-12-31T15:08:44.436Z,11.40
2022-12-31T15:11:56.096Z,10.10
2022-12-31T15:14:45.905Z,10.40
2022-12-31T15:17:19.026Z,14.40
2022-12-31T15:20:25.581Z,13.00
2022-12-31T15:22:54.933Z,10.50
2022-12-31T15:25:36.760Z,9.70
2022-12-31T15:28:26.848Z,11.70
2022-12-31T15:30:59.013Z,12.20
2022-12-31T15:33:38.215Z,11.70
2022-12-31T15:36:14.184Z,10.90
2022-12-31T15:38:43.153Z,12.70
2022-12-31T15:41:28.727Z,14.50
2022-12-31T15:44:15.166Z,17.40
2022-12-31T15:46:44.314Z,8.40
2022-12-31T15:49:23.495Z,9.70
2022-12-31T15:52:04.977Z,11.90
2022-12-31T15:54:50.957Z,11.60
2022-12-31T15:57:33.497Z,14.90
2022-12-31T16:00:08.680Z,8.40
2022-12-31T16:02:43.290Z,8.00
2022-12-31T16:05:21.838Z,6.70
2022-12-31T16:07:58.781Z,14.00
2022-12-31T16:10:30.420Z,9.60
2022-12-31T16:12:59.822Z,9.20
2022-12-31T16:15:34.285Z,7.20
2022-12-31T16:18:10.689Z,9.50
2022-12-31T16:20:45.131Z,7.90
2022-12-31T16:23:22.570Z,11.60
2022-12-31T16:25:53.647Z,6.20
2022-12-31T16:28:25.233Z,8.90
2022-12-31T16:31:06.937Z,8.90
2022-12-31T16:33:35.338Z,11.60
2022-12-31T16:36:05.664Z,9.20
2022-12-31T16:38:37.129Z,9.70
2022-12-31T16:41:17.909Z,11.40
2022-12-31T16:43:48.356Z,9.40
2022-12-31T16:48:59.544Z,8.20
2022-12-31T16:51:31.022Z,13.70
2022-12-31T16:54:01.375Z,11.90
2022-12-31T16:56:39.574Z,10.40
2022-12-31T16:59:23.259Z,12.10
2022-12-31T17:01:56.244Z,11.30
2022-12-31T17:04:24.813Z,8.70
2022-12-31T17:06:53.005Z,8.80
2022-12-31T17:09:31.015Z,11.20
2022-12-31T17:12:28.177Z,8.50
2022-12-31T17:15:02.108Z,8.00
2022-12-31T17:17:36.063Z,8.70
2022-12-31T17:20:07.313Z,8.90
2022-12-31T17:22:41.596Z,8.80
2022-12-31T17:25:34.379Z,9.30
2022-12-31T17:28:07.151Z,12.00
2022-12-31T17:30:40.558Z,9.40
2022-12-31T17:33:11.569Z,13.30
2022-12-31T17:35:42.985Z,9.50
2022-12-31T17:38:26.161Z,17.60
2022-12-31T17:41:00.285Z,15.50
2022-12-31T17:43:34.740Z,17.20
2022-12-31T17:46:09.153Z,9.90
2022-12-31T17:48:37.818Z,7.00
2022-12-31T17:51:06.423Z,9.60
2022-12-31T17:53:34.753Z,10.90
2022-12-31T17:56:05.445Z,13.90
2022-12-31T18:01:07.130Z,10.10
2022-12-31T18:03:35.465Z,8.10
2022-12-31T18:06:05.943Z,6.00
2022-12-31T18:08:34.653Z,9.80
2022-12-31T18:11:03.251Z,11.00
2022-12-31T18:13:31.793Z,12.80
2022-12-31T18:16:00.056Z,6.80
2022-12-31T18:18:30.685Z,9.20
2022-12-31T18:23:46.435Z,8.80
2022-12-31T18:26:21.517Z,10.60
2022-12-31T18:28:50.094Z,5.90
2022-12-31T18:31:28.053Z,6.10
2022-12-31T18:33:58.638Z,7.20
2022-12-31T18:36:28.793Z,10.30
2022-12-31T18:38:57.079Z,12.00
2022-12-31T18:41:27.871Z,9.80
2022-12-31T18:43:56.182Z,13.30
2022-12-31T18:46:25.156Z,6.90
2022-12-31T18:48:53.425Z,7.60
2022-12-31T18:51:31.411Z,8.00
2022-12-31T18:54:01.119Z,10.60
2022-12-31T18:56:29.688Z,11.10
2022-12-31T18:58:58.295Z,9.90
2022-12-31T19:01:37.599Z,9.70
2022-12-31T19:04:16.285Z,7.60
2022-12-31T19:06:48.177Z,10.10
2022-12-31T19:09:43.437Z,7.80
2022-12-31T19:12:05.575Z,9.10
2022-12-31T19:14:33.936Z,6.90
2022-12-31T19:19:29.113Z,10.30
2022-12-31T19:21:57.122Z,13.00
2022-12-31T19:24:26.921Z,14.40
2022-12-31T19:26:55.236Z,11.20
2022-12-31T19:29:27.142Z,8.50
2022-12-31T19:31:55.327Z,15.10
2022-12-31T19:34:23.260Z,10.60
2022-12-31T19:36:51.577Z,9.80
2022-12-31T19:39:21.326Z,10.00
2022-12-31T19:41:56.554Z,12.90
2022-12-31T19:44:27.410Z,12.80
2022-12-31T19:46:55.851Z,14.50
2022-12-31T19:49:24.601Z,7.60
2022-12-31T19:51:53.126Z,8.60
2022-12-31T19:54:21.985Z,8.40
2022-12-31T19:56:50.042Z,10.00
2022-12-31T19:59:18.495Z,9.20
2022-12-31T20:01:46.586Z,7.60
2022-12-31T20:04:14.983Z,11.80
2022-12-31T20:06:43.123Z,8.60
2022-12-31T20:09:11.711Z,9.50
2022-12-31T20:11:40.168Z,11.90
2022-12-31T20:14:08.365Z,12.10
2022-12-31T20:16:36.779Z,9.70
2022-12-31T20:19:06.252Z,9.30
2022-12-31T20:21:34.181Z,12.40
2022-12-31T20:24:02.440Z,9.30
2022-12-31T20:26:30.711Z,9.60
2022-12-31T20:28:59.139Z,9.80
2022-12-31T20:31:27.388Z,9.00
2022-12-31T20:33:56.299Z,8.90
2022-12-31T20:36:24.797Z,6.60
2022-12-31T20:38:53.120Z,10.20
2022-12-31T20:41:23.244Z,9.40
2022-12-31T20:43:51.801Z,7.80
2022-12-31T20:46:25.112Z,10.00
2022-12-31T20:48:56.481Z,8.70
2022-12-31T20:51:26.294Z,8.40
2022-12-31T20:54:03.695Z,9.20
2022-12-31T20:56:35.070Z,11.30
2022-12-31T20:59:04.820Z,10.90
2022-12-31T21:01:55.677Z,10.50
2022-12-31T21:04:21.769Z,11.20
2022-12-31T21:06:51.426Z,13.90
2022-12-31T21:09:19.902Z,12.90
2022-12-31T21:12:06.606Z,11.30
2022-12-31T21:14:37.427Z,7.50
2022-12-31T21:17:08.303Z,8.00
2022-12-31T21:19:36.227Z,8.00
2022-12-31T21:22:04.647Z,10.00
2022-12-31T21:24:32.596Z,9.80
2022-12-31T21:27:00.943Z,9.90
2022-12-31T21:29:34.308Z,8.10
2022-12-31T21:32:03.999Z,10.80
2022-12-31T21:34:32.538Z,9.60
2022-12-31T21:37:01.127Z,8.30
2022-12-31T21:39:29.314Z,9.80
2022-12-31T21:41:57.624Z,9.00
2022-12-31T21:44:26.765Z,8.20
2022-12-31T21:47:36.464Z,9.80
2022-12-31T21:50:07.252Z,10.20
2022-12-31T21:52:35.602Z,13.50
2022-12-31T21:55:23.303Z,10.90
2022-12-31T21:58:24.718Z,9.20
2022-12-31T22:00:58.950Z,10.90
2022-12-31T22:03:28.235Z,7.70
2022-12-31T22:06:03.064Z,12.90
2022-12-31T22:08:32.095Z,22.50
2022-12-31T22:11:00.258Z,25.10
2022-12-31T22:13:28.668Z,23.00
2022-12-31T22:16:04.309Z,19.20
2022-12-31T22:18:38.552Z,15.50
2022-12-31T22:21:33.401Z,12.70
2022-12-31T22:24:03.393Z,8.70
2022-12-31T22:26:31.635Z,8.10
2022-12-31T22:28:59.940Z,11.10
2022-12-31T22:31:30.147Z,10.20
2022-12-31T22:33:58.768Z,7.00
2022-12-31T22:36:27.069Z,8.80
2022-12-31T22:38:58.045Z,7.70
2022-12-31T22:41:27.773Z,7.80
2022-12-31T22:44:03.003Z,6.90
2022-12-31T22:46:32.851Z,9.70
2022-12-31T22:49:02.592Z,8.70
2022-12-31T22:51:56.708Z,8.10
2022-12-31T22:54:20.660Z,12.60
2022-12-31T22:56:48.989Z,10.70
2022-12-31T22:59:17.326Z,8.00
2022-12-31T23:01:45.752Z,7.30
2022-12-31T23:04:13.929Z,8.80
2022-12-31T23:06:45.528Z,8.30
2022-12-31T23:09:34.339Z,14.30
2022-12-31T23:12:04.693Z,14.60
2022-12-31T23:14:51.185Z,11.40
2022-12-31T23:17:41.801Z,13.40
2022-12-31T23:20:35.241Z,9.40
2022-12-31T23:23:10.621Z,11.00
2022-12-31T23:25:40.801Z,12.40
2022-12-31T23:28:11.869Z,13.60
2022-12-31T23:30:42.133Z,10.20
2022-12-31T23:33:21.917Z,10.80
2022-12-31T23:35:50.007Z,8.30
2022-12-31T23:38:19.102Z,10.80
2022-12-31T23:40:47.206Z,11.00
2022-12-31T23:43:21.358Z,8.40
2022-12-31T23:45:51.152Z,12.70
2022-12-31T23:48:19.403Z,11.60
2022-12-31T23:50:54.474Z,7.30
2022-12-31T23:53:25.744Z,11.30
2022-12-31T23:55:54.015Z,9.10
2022-12-31T23:58:22.338Z,9.70
